sensor_id;sensor_type;location;lat;lon;timestamp;temperature;humidity
16140;DHT22;8175;49.326;12.690;2022-12-18T00:01:29;-6.40;99.90
16140;DHT22;8175;49.326;12.690;2022-12-18T00:03:57;-6.40;99.90
16140;DHT22;8175;49.326;12.690;2022-12-18T00:06:25;-6.40;99.90
16140;DHT22;8175;49.326;12.690;2022-12-18T00:08:51;-6.40;99.90
16140;DHT22;8175;49.326;12.690;2022-12-18T00:11:19;-6.50;99.90
16140;DHT22;8175;49.326;12.690;2022-12-18T00:13:46;-6.50;99.90
16140;DHT22;8175;49.326;12.690;2022-12-18T00:16:14;-6.50;99.90
16140;DHT22;8175;49.326;12.690;2022-12-18T00:18:41;-6.50;99.90
16140;DHT22;8175;49.326;12.690;2022-12-18T00:21:09;-6.50;99.90
16140;DHT22;8175;49.326;12.690;2022-12-18T00:23:40;-6.40;99.90
16140;DHT22;8175;49.326;12.690;2022-12-18T00:26:09;-6.30;99.90
16140;DHT22;8175;49.326;12.690;2022-12-18T00:28:35;-6.20;99.90
16140;DHT22;8175;49.326;12.690;2022-12-18T00:31:05;-6.20;99.90
16140;DHT22;8175;49.326;12.690;2022-12-18T00:33:31;-6.20;99.90
16140;DHT22;8175;49.326;12.690;2022-12-18T00:36:01;-6.20;99.90
16140;DHT22;8175;49.326;12.690;2022-12-18T00:38:27;-6.20;99.90
16140;DHT22;8175;49.326;12.690;2022-12-18T00:40:53;-6.20;99.90
16140;DHT22;8175;49.326;12.690;2022-12-18T00:43:18;-6.20;99.90
16140;DHT22;8175;49.326;12.690;2022-12-18T00:45:44;-6.20;99.90
16140;DHT22;8175;49.326;12.690;2022-12-18T00:48:09;-6.20;99.90
16140;DHT22;8175;49.326;12.690;2022-12-18T00:50:35;-6.30;99.90
16140;DHT22;8175;49.326;12.690;2022-12-18T00:53:01;-6.30;99.90
16140;DHT22;8175;49.326;12.690;2022-12-18T00:55:26;-6.40;99.90
16140;DHT22;8175;49.326;12.690;2022-12-18T00:57:52;-6.40;99.90
16140;DHT22;8175;49.326;12.690;2022-12-18T01:00:18;-6.50;99.90
16140;DHT22;8175;49.326;12.690;2022-12-18T01:02:43;-6.60;99.90
16140;DHT22;8175;49.326;12.690;2022-12-18T01:05:11;-6.60;99.90
16140;DHT22;8175;49.326;12.690;2022-12-18T01:07:37;-6.70;99.90
16140;DHT22;8175;49.326;12.690;2022-12-18T01:10:04;-6.70;99.90
16140;DHT22;8175;49.326;12.690;2022-12-18T01:12:30;-6.80;99.90
16140;DHT22;8175;49.326;12.690;2022-12-18T01:14:56;-6.90;99.90
16140;DHT22;8175;49.326;12.690;2022-12-18T01:17:22;-7.00;99.90
16140;DHT22;8175;49.326;12.690;2022-12-18T01:19:48;-7.00;99.90
16140;DHT22;8175;49.326;12.690;2022-12-18T01:22:14;-7.10;99.90
16140;DHT22;8175;49.326;12.690;2022-12-18T01:24:39;-7.10;99.90
16140;DHT22;8175;49.326;12.690;2022-12-18T01:27:05;-7.10;99.90
16140;DHT22;8175;49.326;12.690;2022-12-18T01:29:31;-7.20;99.90
16140;DHT22;8175;49.326;12.690;2022-12-18T01:31:57;-7.20;99.90
16140;DHT22;8175;49.326;12.690;2022-12-18T01:34:23;-7.20;99.90
16140;DHT22;8175;49.326;12.690;2022-12-18T01:36:49;-7.30;99.90
16140;DHT22;8175;49.326;12.690;2022-12-18T01:39:17;-7.30;99.90
16140;DHT22;8175;49.326;12.690;2022-12-18T01:41:43;-7.30;99.90
16140;DHT22;8175;49.326;12.690;2022-12-18T01:49:53;-7.50;99.90
16140;DHT22;8175;49.326;12.690;2022-12-18T01:52:20;-7.50;99.90
16140;DHT22;8175;49.326;12.690;2022-12-18T01:54:48;-7.50;99.90
16140;DHT22;8175;49.326;12.690;2022-12-18T01:57:14;-7.50;99.90
16140;DHT22;8175;49.326;12.690;2022-12-18T01:59:42;-7.50;99.90
16140;DHT22;8175;49.326;12.690;2022-12-18T02:02:08;-7.50;99.90
16140;DHT22;8175;49.326;12.690;2022-12-18T02:04:34;-7.50;99.90
16140;DHT22;8175;49.326;12.690;2022-12-18T02:09:45;-7.50;99.90
16140;DHT22;8175;49.326;12.690;2022-12-18T02:12:21;-7.50;99.90
16140;DHT22;8175;49.326;12.690;2022-12-18T02:15:03;-7.50;99.90
16140;DHT22;8175;49.326;12.690;2022-12-18T02:17:47;-7.60;99.90
16140;DHT22;8175;49.326;12.690;2022-12-18T02:20:18;-7.60;99.90
16140;DHT22;8175;49.326;12.690;2022-12-18T02:28:06;-7.70;99.90
16140;DHT22;8175;49.326;12.690;2022-12-18T02:30:35;-7.70;99.90
16140;DHT22;8175;49.326;12.690;2022-12-18T02:33:04;-7.80;99.90
16140;DHT22;8175;49.326;12.690;2022-12-18T02:35:30;-7.90;99.90
16140;DHT22;8175;49.326;12.690;2022-12-18T02:37:57;-8.00;99.90
16140;DHT22;8175;49.326;12.690;2022-12-18T02:40:24;-8.20;99.90
16140;DHT22;8175;49.326;12.690;2022-12-18T02:42:51;-8.40;99.90
16140;DHT22;8175;49.326;12.690;2022-12-18T02:45:17;-8.50;99.90
16140;DHT22;8175;49.326;12.690;2022-12-18T02:47:47;-8.60;99.90
16140;DHT22;8175;49.326;12.690;2022-12-18T02:50:38;-8.70;99.90
16140;DHT22;8175;49.326;12.690;2022-12-18T02:53:28;-8.70;99.90
16140;DHT22;8175;49.326;12.690;2022-12-18T02:56:12;-8.70;99.90
16140;DHT22;8175;49.326;12.690;2022-12-18T03:01:24;-8.60;99.90
16140;DHT22;8175;49.326;12.690;2022-12-18T03:03:55;-8.60;99.90
16140;DHT22;8175;49.326;12.690;2022-12-18T03:06:44;-8.50;99.90
16140;DHT22;8175;49.326;12.690;2022-12-18T03:09:21;-8.50;99.90
16140;DHT22;8175;49.326;12.690;2022-12-18T03:11:54;-8.50;99.90
16140;DHT22;8175;49.326;12.690;2022-12-18T03:14:41;-8.60;99.90
16140;DHT22;8175;49.326;12.690;2022-12-18T03:17:14;-8.80;99.90
16140;DHT22;8175;49.326;12.690;2022-12-18T03:19:43;-9.10;99.90
16140;DHT22;8175;49.326;12.690;2022-12-18T03:22:10;-9.40;99.90
16140;DHT22;8175;49.326;12.690;2022-12-18T03:24:37;-9.60;99.90
16140;DHT22;8175;49.326;12.690;2022-12-18T03:27:08;-9.90;99.90
16140;DHT22;8175;49.326;12.690;2022-12-18T03:29:42;-10.10;99.90
16140;DHT22;8175;49.326;12.690;2022-12-18T03:32:11;-10.30;99.90
16140;DHT22;8175;49.326;12.690;2022-12-18T03:34:40;-10.40;99.90
16140;DHT22;8175;49.326;12.690;2022-12-18T03:37:07;-10.50;99.90
16140;DHT22;8175;49.326;12.690;2022-12-18T03:39:34;-10.50;99.90
16140;DHT22;8175;49.326;12.690;2022-12-18T03:42:17;-10.40;99.90
16140;DHT22;8175;49.326;12.690;2022-12-18T03:47:38;-10.30;99.90
16140;DHT22;8175;49.326;12.690;2022-12-18T03:50:19;-10.30;99.90
16140;DHT22;8175;49.326;12.690;2022-12-18T03:52:57;-10.40;99.90
16140;DHT22;8175;49.326;12.690;2022-12-18T03:55:28;-10.50;99.90
16140;DHT22;8175;49.326;12.690;2022-12-18T03:57:57;-10.50;99.90
16140;DHT22;8175;49.326;12.690;2022-12-18T04:00:23;-10.60;99.90
16140;DHT22;8175;49.326;12.690;2022-12-18T04:02:54;-10.70;99.90
16140;DHT22;8175;49.326;12.690;2022-12-18T04:05:22;-10.80;99.90
16140;DHT22;8175;49.326;12.690;2022-12-18T04:07:50;-11.10;99.90
16140;DHT22;8175;49.326;12.690;2022-12-18T04:10:17;-11.10;99.90
16140;DHT22;8175;49.326;12.690;2022-12-18T04:12:43;-11.20;99.90
16140;DHT22;8175;49.326;12.690;2022-12-18T04:15:10;-11.30;99.90
16140;DHT22;8175;49.326;12.690;2022-12-18T04:17:37;-11.40;99.90
16140;DHT22;8175;49.326;12.690;2022-12-18T04:20:03;-11.40;99.90
16140;DHT22;8175;49.326;12.690;2022-12-18T04:22:28;-11.40;99.90
16140;DHT22;8175;49.326;12.690;2022-12-18T04:24:54;-11.50;99.90
16140;DHT22;8175;49.326;12.690;2022-12-18T04:27:20;-11.50;99.90
16140;DHT22;8175;49.326;12.690;2022-12-18T04:29:45;-11.50;99.90
16140;DHT22;8175;49.326;12.690;2022-12-18T04:32:11;-11.60;99.90
16140;DHT22;8175;49.326;12.690;2022-12-18T04:34:37;-11.60;99.90
16140;DHT22;8175;49.326;12.690;2022-12-18T04:37:02;-11.50;99.90
16140;DHT22;8175;49.326;12.690;2022-12-18T04:39:28;-11.40;99.90
16140;DHT22;8175;49.326;12.690;2022-12-18T04:41:54;-11.30;99.90
16140;DHT22;8175;49.326;12.690;2022-12-18T04:44:19;-11.30;99.90
16140;DHT22;8175;49.326;12.690;2022-12-18T04:46:45;-11.30;99.90
16140;DHT22;8175;49.326;12.690;2022-12-18T04:49:11;-11.20;99.90
16140;DHT22;8175;49.326;12.690;2022-12-18T04:51:36;-11.10;99.90
16140;DHT22;8175;49.326;12.690;2022-12-18T04:54:02;-11.10;99.90
16140;DHT22;8175;49.326;12.690;2022-12-18T04:56:30;-11.10;99.90
16140;DHT22;8175;49.326;12.690;2022-12-18T04:58:56;-11.00;99.90
16140;DHT22;8175;49.326;12.690;2022-12-18T05:01:21;-11.00;99.90
16140;DHT22;8175;49.326;12.690;2022-12-18T05:03:47;-11.00;99.90
16140;DHT22;8175;49.326;12.690;2022-12-18T05:06:13;-11.00;99.90
16140;DHT22;8175;49.326;12.690;2022-12-18T05:08:39;-11.00;99.90
16140;DHT22;8175;49.326;12.690;2022-12-18T05:11:07;-11.00;99.90
16140;DHT22;8175;49.326;12.690;2022-12-18T05:13:34;-11.00;99.90
16140;DHT22;8175;49.326;12.690;2022-12-18T05:16:00;-10.90;99.90
16140;DHT22;8175;49.326;12.690;2022-12-18T05:18:26;-10.90;99.90
16140;DHT22;8175;49.326;12.690;2022-12-18T05:20:53;-10.80;99.90
16140;DHT22;8175;49.326;12.690;2022-12-18T05:23:19;-10.80;99.90
16140;DHT22;8175;49.326;12.690;2022-12-18T05:25:58;-10.70;99.90
16140;DHT22;8175;49.326;12.690;2022-12-18T05:28:25;-10.50;99.90
16140;DHT22;8175;49.326;12.690;2022-12-18T05:30:53;-10.30;99.90
16140;DHT22;8175;49.326;12.690;2022-12-18T05:33:20;-10.10;99.90
16140;DHT22;8175;49.326;12.690;2022-12-18T05:35:53;-10.00;99.90
16140;DHT22;8175;49.326;12.690;2022-12-18T05:38:20;-10.10;99.90
16140;DHT22;8175;49.326;12.690;2022-12-18T05:40:51;-10.10;99.90
16140;DHT22;8175;49.326;12.690;2022-12-18T05:43:18;-10.20;99.90
16140;DHT22;8175;49.326;12.690;2022-12-18T05:45:45;-10.30;99.90
16140;DHT22;8175;49.326;12.690;2022-12-18T05:48:11;-10.40;99.90
16140;DHT22;8175;49.326;12.690;2022-12-18T05:50:38;-10.50;99.90
16140;DHT22;8175;49.326;12.690;2022-12-18T05:53:04;-10.50;99.90
16140;DHT22;8175;49.326;12.690;2022-12-18T05:55:37;-10.50;99.90
16140;DHT22;8175;49.326;12.690;2022-12-18T05:58:04;-10.50;99.90
16140;DHT22;8175;49.326;12.690;2022-12-18T06:00:32;-10.50;99.90
16140;DHT22;8175;49.326;12.690;2022-12-18T06:02:59;-10.50;99.90
16140;DHT22;8175;49.326;12.690;2022-12-18T06:05:25;-10.50;99.90
16140;DHT22;8175;49.326;12.690;2022-12-18T06:07:50;-10.60;99.90
16140;DHT22;8175;49.326;12.690;2022-12-18T06:10:16;-10.70;99.90
16140;DHT22;8175;49.326;12.690;2022-12-18T06:12:42;-10.90;99.90
16140;DHT22;8175;49.326;12.690;2022-12-18T06:15:08;-11.00;99.90
16140;DHT22;8175;49.326;12.690;2022-12-18T06:17:34;-11.20;99.90
16140;DHT22;8175;49.326;12.690;2022-12-18T06:20:00;-11.40;99.90
16140;DHT22;8175;49.326;12.690;2022-12-18T06:22:26;-11.60;99.90
16140;DHT22;8175;49.326;12.690;2022-12-18T06:24:52;-11.70;99.90
16140;DHT22;8175;49.326;12.690;2022-12-18T06:27:18;-11.90;99.90
16140;DHT22;8175;49.326;12.690;2022-12-18T06:29:44;-12.00;99.90
16140;DHT22;8175;49.326;12.690;2022-12-18T06:32:10;-11.90;99.90
16140;DHT22;8175;49.326;12.690;2022-12-18T06:34:37;-12.00;99.90
16140;DHT22;8175;49.326;12.690;2022-12-18T06:37:03;-12.10;99.90
16140;DHT22;8175;49.326;12.690;2022-12-18T06:39:29;-12.20;99.90
16140;DHT22;8175;49.326;12.690;2022-12-18T06:41:55;-12.30;99.90
16140;DHT22;8175;49.326;12.690;2022-12-18T06:44:21;-12.40;99.90
16140;DHT22;8175;49.326;12.690;2022-12-18T06:46:47;-12.50;99.90
16140;DHT22;8175;49.326;12.690;2022-12-18T06:49:12;-12.50;99.90
16140;DHT22;8175;49.326;12.690;2022-12-18T06:51:38;-12.50;99.90
16140;DHT22;8175;49.326;12.690;2022-12-18T06:54:04;-12.70;99.90
16140;DHT22;8175;49.326;12.690;2022-12-18T06:56:30;-12.70;99.90
16140;DHT22;8175;49.326;12.690;2022-12-18T06:58:56;-12.90;99.90
16140;DHT22;8175;49.326;12.690;2022-12-18T07:01:22;-12.90;99.90
16140;DHT22;8175;49.326;12.690;2022-12-18T07:03:54;-12.80;99.90
16140;DHT22;8175;49.326;12.690;2022-12-18T07:06:22;-12.70;99.90
16140;DHT22;8175;49.326;12.690;2022-12-18T07:08:48;-12.70;99.90
16140;DHT22;8175;49.326;12.690;2022-12-18T07:11:15;-12.60;99.90
16140;DHT22;8175;49.326;12.690;2022-12-18T07:13:41;-12.40;99.90
16140;DHT22;8175;49.326;12.690;2022-12-18T07:16:10;-12.50;99.90
16140;DHT22;8175;49.326;12.690;2022-12-18T07:18:36;-12.50;99.90
16140;DHT22;8175;49.326;12.690;2022-12-18T07:21:10;-12.40;99.90
16140;DHT22;8175;49.326;12.690;2022-12-18T07:23:36;-12.40;99.90
16140;DHT22;8175;49.326;12.690;2022-12-18T07:26:07;-12.40;99.90
16140;DHT22;8175;49.326;12.690;2022-12-18T07:28:34;-12.40;99.90
16140;DHT22;8175;49.326;12.690;2022-12-18T07:31:10;-12.40;99.90
16140;DHT22;8175;49.326;12.690;2022-12-18T07:33:37;-12.30;99.90
16140;DHT22;8175;49.326;12.690;2022-12-18T07:36:04;-12.30;99.90
16140;DHT22;8175;49.326;12.690;2022-12-18T07:38:32;-12.40;99.90
16140;DHT22;8175;49.326;12.690;2022-12-18T07:41:12;-12.50;99.90
16140;DHT22;8175;49.326;12.690;2022-12-18T07:43:39;-12.50;99.90
16140;DHT22;8175;49.326;12.690;2022-12-18T07:46:05;-12.50;99.90
16140;DHT22;8175;49.326;12.690;2022-12-18T07:48:31;-12.50;99.90
16140;DHT22;8175;49.326;12.690;2022-12-18T07:51:01;-12.50;99.90
16140;DHT22;8175;49.326;12.690;2022-12-18T07:53:27;-12.60;99.90
16140;DHT22;8175;49.326;12.690;2022-12-18T07:55:57;-12.70;99.90
16140;DHT22;8175;49.326;12.690;2022-12-18T07:58:23;-12.70;99.90
16140;DHT22;8175;49.326;12.690;2022-12-18T08:00:49;-12.60;99.90
16140;DHT22;8175;49.326;12.690;2022-12-18T08:03:15;-12.60;99.90
16140;DHT22;8175;49.326;12.690;2022-12-18T08:23:00;-11.70;99.90
16140;DHT22;8175;49.326;12.690;2022-12-18T08:25:25;-11.60;99.90
16140;DHT22;8175;49.326;12.690;2022-12-18T08:27:51;-11.50;99.90
16140;DHT22;8175;49.326;12.690;2022-12-18T08:30:17;-11.40;99.90
16140;DHT22;8175;49.326;12.690;2022-12-18T08:32:42;-11.10;99.90
16140;DHT22;8175;49.326;12.690;2022-12-18T08:35:08;-10.90;99.90
16140;DHT22;8175;49.326;12.690;2022-12-18T08:37:34;-10.60;99.90
16140;DHT22;8175;49.326;12.690;2022-12-18T08:40:00;-10.40;99.90
16140;DHT22;8175;49.326;12.690;2022-12-18T08:42:25;-10.20;99.90
16140;DHT22;8175;49.326;12.690;2022-12-18T08:45:10;-10.10;99.90
16140;DHT22;8175;49.326;12.690;2022-12-18T08:47:36;-10.00;99.90
16140;DHT22;8175;49.326;12.690;2022-12-18T08:50:01;-9.90;99.90
16140;DHT22;8175;49.326;12.690;2022-12-18T08:52:27;-9.90;99.90
16140;DHT22;8175;49.326;12.690;2022-12-18T08:54:53;-9.90;99.90
16140;DHT22;8175;49.326;12.690;2022-12-18T08:57:19;-10.00;99.90
16140;DHT22;8175;49.326;12.690;2022-12-18T08:59:44;-9.90;99.90
16140;DHT22;8175;49.326;12.690;2022-12-18T09:02:11;-9.70;99.90
16140;DHT22;8175;49.326;12.690;2022-12-18T09:04:37;-9.70;99.90
16140;DHT22;8175;49.326;12.690;2022-12-18T09:07:02;-9.50;99.90
16140;DHT22;8175;49.326;12.690;2022-12-18T09:09:28;-9.40;99.90
16140;DHT22;8175;49.326;12.690;2022-12-18T09:11:54;-9.30;99.90
16140;DHT22;8175;49.326;12.690;2022-12-18T09:14:19;-9.20;99.90
16140;DHT22;8175;49.326;12.690;2022-12-18T09:16:45;-9.30;99.90
16140;DHT22;8175;49.326;12.690;2022-12-18T09:19:11;-9.20;99.90
16140;DHT22;8175;49.326;12.690;2022-12-18T09:21:36;-9.10;99.90
16140;DHT22;8175;49.326;12.690;2022-12-18T09:24:03;-8.80;99.90
16140;DHT22;8175;49.326;12.690;2022-12-18T09:26:29;-8.50;99.90
16140;DHT22;8175;49.326;12.690;2022-12-18T09:28:55;-8.30;99.90
16140;DHT22;8175;49.326;12.690;2022-12-18T09:31:22;-7.80;99.90
16140;DHT22;8175;49.326;12.690;2022-12-18T09:33:49;-7.20;99.90
16140;DHT22;8175;49.326;12.690;2022-12-18T09:36:16;-6.60;99.90
16140;DHT22;8175;49.326;12.690;2022-12-18T09:38:43;-5.70;99.90
16140;DHT22;8175;49.326;12.690;2022-12-18T09:44:01;-3.60;99.90
16140;DHT22;8175;49.326;12.690;2022-12-18T09:46:36;-2.50;99.90
16140;DHT22;8175;49.326;12.690;2022-12-18T09:49:09;-0.90;99.90
16140;DHT22;8175;49.326;12.690;2022-12-18T09:52:14;-0.50;99.90
16140;DHT22;8175;49.326;12.690;2022-12-18T09:54:38;0.20;99.90
16140;DHT22;8175;49.326;12.690;2022-12-18T09:57:05;0.50;99.90
16140;DHT22;8175;49.326;12.690;2022-12-18T09:59:38;1.00;99.90
16140;DHT22;8175;49.326;12.690;2022-12-18T10:02:17;1.70;99.90
16140;DHT22;8175;49.326;12.690;2022-12-18T10:04:43;2.20;99.90
16140;DHT22;8175;49.326;12.690;2022-12-18T10:08:10;2.60;99.90
16140;DHT22;8175;49.326;12.690;2022-12-18T10:13:05;1.30;99.90
16140;DHT22;8175;49.326;12.690;2022-12-18T10:21:09;1.90;99.90
16140;DHT22;8175;49.326;12.690;2022-12-18T10:23:47;2.50;99.90
16140;DHT22;8175;49.326;12.690;2022-12-18T10:26:15;2.00;99.90
16140;DHT22;8175;49.326;12.690;2022-12-18T10:28:41;2.00;94.60
16140;DHT22;8175;49.326;12.690;2022-12-18T10:31:16;1.70;94.00
16140;DHT22;8175;49.326;12.690;2022-12-18T10:33:43;1.70;94.50
16140;DHT22;8175;49.326;12.690;2022-12-18T10:36:09;2.30;91.80
16140;DHT22;8175;49.326;12.690;2022-12-18T10:38:35;1.40;92.20
16140;DHT22;8175;49.326;12.690;2022-12-18T10:44:18;2.10;90.20
16140;DHT22;8175;49.326;12.690;2022-12-18T10:46:53;1.60;90.40
16140;DHT22;8175;49.326;12.690;2022-12-18T10:49:27;2.30;90.80
16140;DHT22;8175;49.326;12.690;2022-12-18T10:54:54;3.50;81.60
16140;DHT22;8175;49.326;12.690;2022-12-18T10:57:36;3.30;78.90
16140;DHT22;8175;49.326;12.690;2022-12-18T11:00:25;3.70;77.60
16140;DHT22;8175;49.326;12.690;2022-12-18T11:02:51;3.50;75.90
16140;DHT22;8175;49.326;12.690;2022-12-18T11:07:50;3.00;75.20
16140;DHT22;8175;49.326;12.690;2022-12-18T11:10:21;2.40;76.70
16140;DHT22;8175;49.326;12.690;2022-12-18T11:12:47;2.80;76.60
16140;DHT22;8175;49.326;12.690;2022-12-18T11:15:19;2.70;75.60
16140;DHT22;8175;49.326;12.690;2022-12-18T11:17:47;2.80;76.70
16140;DHT22;8175;49.326;12.690;2022-12-18T11:20:34;3.30;76.60
16140;DHT22;8175;49.326;12.690;2022-12-18T11:23:11;4.10;74.10
16140;DHT22;8175;49.326;12.690;2022-12-18T11:25:38;4.10;73.20
16140;DHT22;8175;49.326;12.690;2022-12-18T11:33:44;5.10;70.70
16140;DHT22;8175;49.326;12.690;2022-12-18T11:36:12;5.60;68.90
16140;DHT22;8175;49.326;12.690;2022-12-18T11:38:42;6.40;71.00
16140;DHT22;8175;49.326;12.690;2022-12-18T11:41:38;7.10;66.60
16140;DHT22;8175;49.326;12.690;2022-12-18T11:44:35;7.30;60.90
16140;DHT22;8175;49.326;12.690;2022-12-18T11:47:56;6.80;60.90
16140;DHT22;8175;49.326;12.690;2022-12-18T11:49:56;7.10;62.00
16140;DHT22;8175;49.326;12.690;2022-12-18T11:52:37;7.50;59.20
16140;DHT22;8175;49.326;12.690;2022-12-18T11:55:23;7.60;58.90
16140;DHT22;8175;49.326;12.690;2022-12-18T12:00:56;7.60;56.90
16140;DHT22;8175;49.326;12.690;2022-12-18T12:03:47;7.30;56.10
16140;DHT22;8175;49.326;12.690;2022-12-18T12:06:49;6.50;57.00
16140;DHT22;8175;49.326;12.690;2022-12-18T12:09:29;5.90;58.60
16140;DHT22;8175;49.326;12.690;2022-12-18T12:12:05;5.50;59.30
16140;DHT22;8175;49.326;12.690;2022-12-18T12:14:59;5.30;60.50
16140;DHT22;8175;49.326;12.690;2022-12-18T12:17:42;5.20;60.50
16140;DHT22;8175;49.326;12.690;2022-12-18T12:20:25;4.70;61.70
16140;DHT22;8175;49.326;12.690;2022-12-18T12:23:12;5.30;61.40
16140;DHT22;8175;49.326;12.690;2022-12-18T12:36:37;6.30;58.80
16140;DHT22;8175;49.326;12.690;2022-12-18T12:39:10;6.10;58.70
16140;DHT22;8175;49.326;12.690;2022-12-18T12:41:39;5.90;59.00
16140;DHT22;8175;49.326;12.690;2022-12-18T12:44:47;6.00;59.60
16140;DHT22;8175;49.326;12.690;2022-12-18T12:47:27;6.40;59.30
16140;DHT22;8175;49.326;12.690;2022-12-18T12:49:54;6.00;58.50
16140;DHT22;8175;49.326;12.690;2022-12-18T12:52:45;5.80;58.60
16140;DHT22;8175;49.326;12.690;2022-12-18T12:55:21;5.40;59.30
16140;DHT22;8175;49.326;12.690;2022-12-18T13:00:18;3.40;62.90
16140;DHT22;8175;49.326;12.690;2022-12-18T13:02:52;2.40;66.70
16140;DHT22;8175;49.326;12.690;2022-12-18T13:05:57;1.50;69.90
16140;DHT22;8175;49.326;12.690;2022-12-18T13:10:49;1.80;73.30
16140;DHT22;8175;49.326;12.690;2022-12-18T13:13:55;1.90;73.80
16140;DHT22;8175;49.326;12.690;2022-12-18T13:16:25;1.90;73.30
16140;DHT22;8175;49.326;12.690;2022-12-18T13:18:54;1.50;73.90
16140;DHT22;8175;49.326;12.690;2022-12-18T13:21:30;0.60;75.90
16140;DHT22;8175;49.326;12.690;2022-12-18T13:23:56;-0.40;81.70
16140;DHT22;8175;49.326;12.690;2022-12-18T13:26:39;-1.10;87.80
16140;DHT22;8175;49.326;12.690;2022-12-18T13:29:04;-1.90;94.70
16140;DHT22;8175;49.326;12.690;2022-12-18T13:34:16;-3.10;99.90
16140;DHT22;8175;49.326;12.690;2022-12-18T13:36:42;-3.40;99.90
16140;DHT22;8175;49.326;12.690;2022-12-18T13:41:48;-3.80;99.90
16140;DHT22;8175;49.326;12.690;2022-12-18T13:46:51;-4.10;99.90
16140;DHT22;8175;49.326;12.690;2022-12-18T13:49:24;-4.00;99.90
16140;DHT22;8175;49.326;12.690;2022-12-18T13:51:53;-4.10;99.90
16140;DHT22;8175;49.326;12.690;2022-12-18T13:54:36;-4.10;99.90
16140;DHT22;8175;49.326;12.690;2022-12-18T13:57:04;-4.30;99.90
16140;DHT22;8175;49.326;12.690;2022-12-18T13:59:38;-4.50;99.90
16140;DHT22;8175;49.326;12.690;2022-12-18T14:02:17;-4.60;99.90
16140;DHT22;8175;49.326;12.690;2022-12-18T14:04:47;-4.90;99.90
16140;DHT22;8175;49.326;12.690;2022-12-18T14:07:28;-5.40;99.90
16140;DHT22;8175;49.326;12.690;2022-12-18T14:09:56;-5.80;99.90
16140;DHT22;8175;49.326;12.690;2022-12-18T14:12:25;-5.90;99.90
16140;DHT22;8175;49.326;12.690;2022-12-18T14:15:35;-5.90;99.90
16140;DHT22;8175;49.326;12.690;2022-12-18T14:18:24;-6.00;99.90
16140;DHT22;8175;49.326;12.690;2022-12-18T14:20:57;-6.10;99.90
16140;DHT22;8175;49.326;12.690;2022-12-18T14:25:57;-6.40;99.90
16140;DHT22;8175;49.326;12.690;2022-12-18T14:28:23;-6.60;99.90
16140;DHT22;8175;49.326;12.690;2022-12-18T14:30:49;-6.80;99.90
16140;DHT22;8175;49.326;12.690;2022-12-18T14:33:18;-6.90;99.90
16140;DHT22;8175;49.326;12.690;2022-12-18T14:38:36;-7.40;99.90
16140;DHT22;8175;49.326;12.690;2022-12-18T14:41:13;-7.70;99.90
16140;DHT22;8175;49.326;12.690;2022-12-18T14:43:41;-8.00;99.90
16140;DHT22;8175;49.326;12.690;2022-12-18T14:48:55;-8.30;99.90
16140;DHT22;8175;49.326;12.690;2022-12-18T14:51:24;-8.50;99.90
16140;DHT22;8175;49.326;12.690;2022-12-18T14:56:29;-8.80;99.90
16140;DHT22;8175;49.326;12.690;2022-12-18T14:58:55;-8.90;99.90
16140;DHT22;8175;49.326;12.690;2022-12-18T15:01:28;-9.10;99.90
16140;DHT22;8175;49.326;12.690;2022-12-18T15:03:56;-9.20;99.90
16140;DHT22;8175;49.326;12.690;2022-12-18T15:06:31;-9.30;99.90
16140;DHT22;8175;49.326;12.690;2022-12-18T15:08:59;-9.40;99.90
16140;DHT22;8175;49.326;12.690;2022-12-18T15:11:35;-9.50;99.90
16140;DHT22;8175;49.326;12.690;2022-12-18T15:14:22;-9.70;99.90
16140;DHT22;8175;49.326;12.690;2022-12-18T15:16:53;-9.80;99.90
16140;DHT22;8175;49.326;12.690;2022-12-18T15:19:21;-9.80;99.90
16140;DHT22;8175;49.326;12.690;2022-12-18T15:21:47;-9.90;99.90
16140;DHT22;8175;49.326;12.690;2022-12-18T15:24:29;-10.00;99.90
16140;DHT22;8175;49.326;12.690;2022-12-18T15:26:55;-10.10;99.90
16140;DHT22;8175;49.326;12.690;2022-12-18T15:29:22;-10.10;99.90
16140;DHT22;8175;49.326;12.690;2022-12-18T15:32:05;-10.20;99.90
16140;DHT22;8175;49.326;12.690;2022-12-18T15:34:31;-10.20;99.90
16140;DHT22;8175;49.326;12.690;2022-12-18T15:36:57;-10.20;99.90
16140;DHT22;8175;49.326;12.690;2022-12-18T15:39:24;-10.30;99.90
16140;DHT22;8175;49.326;12.690;2022-12-18T15:41:50;-10.30;99.90
16140;DHT22;8175;49.326;12.690;2022-12-18T15:44:34;-10.40;99.90
16140;DHT22;8175;49.326;12.690;2022-12-18T15:47:00;-10.30;99.90
16140;DHT22;8175;49.326;12.690;2022-12-18T15:49:25;-10.30;99.90
16140;DHT22;8175;49.326;12.690;2022-12-18T15:51:57;-10.30;99.90
16140;DHT22;8175;49.326;12.690;2022-12-18T15:54:23;-10.20;99.90
16140;DHT22;8175;49.326;12.690;2022-12-18T15:57:10;-10.10;99.90
16140;DHT22;8175;49.326;12.690;2022-12-18T15:59:55;-10.20;99.90
16140;DHT22;8175;49.326;12.690;2022-12-18T16:02:24;-10.30;99.90
16140;DHT22;8175;49.326;12.690;2022-12-18T16:04:50;-10.30;99.90
16140;DHT22;8175;49.326;12.690;2022-12-18T16:07:17;-10.30;99.90
16140;DHT22;8175;49.326;12.690;2022-12-18T16:09:43;-10.30;99.90
16140;DHT22;8175;49.326;12.690;2022-12-18T16:12:36;-10.30;99.90
16140;DHT22;8175;49.326;12.690;2022-12-18T16:15:02;-10.30;99.90
16140;DHT22;8175;49.326;12.690;2022-12-18T16:17:28;-10.30;99.90
16140;DHT22;8175;49.326;12.690;2022-12-18T16:19:54;-10.30;99.90
16140;DHT22;8175;49.326;12.690;2022-12-18T16:22:22;-10.30;99.90
16140;DHT22;8175;49.326;12.690;2022-12-18T16:24:49;-10.30;99.90
16140;DHT22;8175;49.326;12.690;2022-12-18T16:27:15;-10.30;99.90
16140;DHT22;8175;49.326;12.690;2022-12-18T16:29:40;-10.30;99.90
16140;DHT22;8175;49.326;12.690;2022-12-18T16:32:06;-10.20;99.90
16140;DHT22;8175;49.326;12.690;2022-12-18T16:34:33;-10.20;99.90
16140;DHT22;8175;49.326;12.690;2022-12-18T16:37:07;-10.10;99.90
16140;DHT22;8175;49.326;12.690;2022-12-18T16:39:33;-10.10;99.90
16140;DHT22;8175;49.326;12.690;2022-12-18T16:42:03;-10.20;99.90
16140;DHT22;8175;49.326;12.690;2022-12-18T16:44:29;-10.30;99.90
16140;DHT22;8175;49.326;12.690;2022-12-18T16:46:55;-10.30;99.90
16140;DHT22;8175;49.326;12.690;2022-12-18T16:49:27;-10.40;99.90
16140;DHT22;8175;49.326;12.690;2022-12-18T16:51:53;-10.40;99.90
16140;DHT22;8175;49.326;12.690;2022-12-18T16:54:19;-10.40;99.90
16140;DHT22;8175;49.326;12.690;2022-12-18T16:56:45;-10.40;99.90
16140;DHT22;8175;49.326;12.690;2022-12-18T16:59:14;-10.50;99.90
16140;DHT22;8175;49.326;12.690;2022-12-18T17:01:40;-10.50;99.90
16140;DHT22;8175;49.326;12.690;2022-12-18T17:04:07;-10.50;99.90
16140;DHT22;8175;49.326;12.690;2022-12-18T17:06:38;-10.50;99.90
16140;DHT22;8175;49.326;12.690;2022-12-18T17:09:07;-10.50;99.90
16140;DHT22;8175;49.326;12.690;2022-12-18T17:11:34;-10.60;99.90
16140;DHT22;8175;49.326;12.690;2022-12-18T17:14:06;-10.60;99.90
16140;DHT22;8175;49.326;12.690;2022-12-18T17:16:32;-10.60;99.90
16140;DHT22;8175;49.326;12.690;2022-12-18T17:18:57;-10.70;99.90
16140;DHT22;8175;49.326;12.690;2022-12-18T17:21:23;-10.70;99.90
16140;DHT22;8175;49.326;12.690;2022-12-18T17:23:48;-10.80;99.90
16140;DHT22;8175;49.326;12.690;2022-12-18T17:26:14;-10.80;99.90